Airfield :
LOGIN :

Register | Disclaimer

   EN    FR    IT 

 










Legend :    VFR   Marginal VFR   IFR   Intensive IFR   Very Intensive IFR
Visi :
Ceiling :
>= 8 km
>= 3000ft
5 to 8 km
1000 to 3000 ft
1500m to 5 km
500 to 1000 ft
800 to 1500m
200 to 500 ft
< 800m
< 200 ft
Symbols :   Thunderstorms  Fog  Heavy snow  Heavy precipitations  Wind > 20 kt
SIGMETs :     Misc.  Thunderstorms  Icing  Turbulence  Mountain Waves  Volcanic Ashes






- Airport Elevation : 65 ft
- IATA code : PIK


EGPK - Glasgow Prestwick

CURRENT METAR :
  • 310750Z 04007KT CAVOK 16/08 Q1026

EXPIRED METARs :
  • 310720Z 05005KT CAVOK 16/08 Q1026
  • 310650Z 03004KT 360V060 CAVOK 15/08 Q1026
  • 310620Z 06006KT CAVOK 14/07 Q1026
  • 310550Z 07005KT CAVOK 13/07 Q1026

TAF TAF EGPK
Valid from the 31 at 06:00 until the 01 at 06:00 UTC


310453Z 3106/0106 09007KT 9999 FEW045
PROB30 3114/3119 27010KT



MET'MAP, your aeronautical weather chart ! - Copyright ORBIFLY December 2007 - Disclaimer

ORBIFLY MET'MAP TEAM :

Programming & Development : Alexandra Zaïnal
Concept & original design : Baudouin d'Aumeries
Assistance for programming : Marc-Olivier Méhu
Technical & hardware support : Manuel Goepfert

Contact : metmap@orbifly.com




SOURCES & CREDITS :

   NOAA